Time;durP1;ratioP1;P1;durP2;ratioP2;P2;SDS_P1;SDS_P2;PMS_P1;PMS_P2;Temp;Humidity;BMP_temperature;BMP_pressure;BME280_temperature;BME280_humidity;BME280_pressure;Samples;Min_cycle;Max_cycle;Signal;HPM_P1;HPM_P2
2023/04/12 00:02:21;;;;;;;19.70;5.30;;;;;;;3.90;89.62;99901.53;106322;1276;22555;-59
2023/04/12 00:04:54;;;;;;;20.70;5.00;;;;;;;3.86;89.67;99897.36;106314;1270;24067;-58
2023/04/12 00:07:26;;;;;;;23.40;5.60;;;;;;;3.82;89.63;99898.20;110426;1265;22164;-58
2023/04/12 00:09:57;;;;;;;18.70;4.50;;;;;;;3.79;89.74;99895.39;110418;1268;22321;-59
2023/04/12 00:12:28;;;;;;;18.50;5.00;;;;;;;3.76;89.76;99897.52;110424;1269;22176;-59
2023/04/12 00:15:00;;;;;;;16.60;4.10;;;;;;;3.74;89.83;99896.97;110433;1269;22412;-59
2023/04/12 00:17:31;;;;;;;17.00;3.70;;;;;;;3.72;89.88;99892.92;110482;1276;22351;-60
2023/04/12 00:20:04;;;;;;;17.20;3.50;;;;;;;3.70;89.87;99888.42;110435;1265;23168;-59
2023/04/12 00:22:35;;;;;;;17.70;4.00;;;;;;;3.67;89.98;99887.09;110451;1269;22243;-59
2023/04/12 00:25:07;;;;;;;16.10;3.60;;;;;;;3.65;90.01;99887.62;110426;1275;22191;-59
2023/04/12 00:27:38;;;;;;;15.00;3.40;;;;;;;3.64;90.00;99884.32;110451;1269;22302;-59
2023/04/12 00:30:10;;;;;;;11.70;3.50;;;;;;;3.63;90.00;99883.98;110408;1269;22347;-59
2023/04/12 00:32:42;;;;;;;19.50;4.60;;;;;;;3.62;89.98;99881.02;110439;1276;22156;-59
2023/04/12 00:35:13;;;;;;;12.70;3.10;;;;;;;3.59;89.90;99884.34;110383;1276;22238;-60
2023/04/12 00:37:44;;;;;;;12.80;3.20;;;;;;;3.56;89.90;99886.14;110424;1270;22861;-59
2023/04/12 00:40:15;;;;;;;13.40;3.60;;;;;;;3.55;89.99;99886.35;110459;1266;22184;-59
2023/04/12 00:42:46;;;;;;;14.30;3.60;;;;;;;3.53;89.85;99889.23;110440;1270;23138;-59
2023/04/12 00:45:17;;;;;;;13.30;3.10;;;;;;;3.51;89.88;99883.81;110461;1261;22359;-59
2023/04/12 00:47:48;;;;;;;18.50;3.90;;;;;;;3.49;89.95;99892.06;110447;1266;22220;-59
2023/04/12 00:50:20;;;;;;;10.70;2.70;;;;;;;3.48;89.97;99888.06;110421;1272;22910;-59
2023/04/12 00:52:52;;;;;;;11.70;3.10;;;;;;;3.47;89.93;99887.77;110394;1266;22248;-59
2023/04/12 00:55:23;;;;;;;12.60;2.40;;;;;;;3.44;90.02;99891.48;110397;1270;22329;-58
2023/04/12 00:57:54;;;;;;;18.10;3.30;;;;;;;3.43;90.01;99890.58;110406;1269;22127;-59
2023/04/12 01:00:25;;;;;;;10.90;2.90;;;;;;;3.41;90.13;99892.90;110421;1269;22174;-59
2023/04/12 01:02:57;;;;;;;16.10;3.10;;;;;;;3.39;90.24;99897.31;110455;1269;22080;-59
2023/04/12 01:05:29;;;;;;;14.80;3.40;;;;;;;3.37;90.31;99893.98;106473;1276;24276;-59
2023/04/12 01:08:13;;;;;;;15.80;3.20;;;;;;;3.36;90.28;99890.95;106403;1270;24260;-57
2023/04/12 01:10:52;;;;;;;14.30;2.80;;;;;;;3.33;90.44;99888.50;110407;1265;22861;-59
2023/04/12 01:13:32;;;;;;;17.30;3.40;;;;;;;3.30;90.62;99890.78;110370;1273;22264;-59
2023/04/12 01:16:09;;;;;;;15.70;3.50;;;;;;;3.30;90.80;99892.59;110404;1266;22218;-59
2023/04/12 01:18:49;;;;;;;12.40;2.80;;;;;;;3.32;90.90;99889.95;110401;1267;22225;-59
2023/04/12 01:21:29;;;;;;;16.10;2.40;;;;;;;3.33;90.87;99889.45;110420;1267;22268;-59
2023/04/12 01:24:35;;;;;;;16.90;4.00;;;;;;;3.34;91.09;99885.32;110388;1270;22337;-59
2023/04/12 01:27:15;;;;;;;17.00;2.90;;;;;;;3.35;91.04;99887.73;110439;1264;22277;-59
2023/04/12 01:29:48;;;;;;;10.50;2.60;;;;;;;3.36;90.97;99886.85;110448;1276;23381;-58
2023/04/12 01:32:20;;;;;;;13.60;2.70;;;;;;;3.37;90.97;99883.89;110419;1272;22162;-59
2023/04/12 01:34:52;;;;;;;12.00;2.60;;;;;;;3.38;91.00;99881.20;110393;1273;23214;-57
2023/04/12 01:37:23;;;;;;;11.80;2.60;;;;;;;3.38;90.92;99880.94;110426;1273;22178;-57
2023/04/12 01:39:54;;;;;;;11.30;2.40;;;;;;;3.39;91.04;99884.69;110365;1269;22266;-59
2023/04/12 01:42:25;;;;;;;11.70;2.60;;;;;;;3.39;90.93;99881.06;110387;1272;23377;-59
2023/04/12 01:44:56;;;;;;;9.20;2.60;;;;;;;3.40;90.85;99882.95;110434;1269;22115;-59
2023/04/12 01:47:27;;;;;;;13.40;2.40;;;;;;;3.40;90.83;99884.91;110425;1276;22349;-58
2023/04/12 01:50:11;;;;;;;10.40;2.10;;;;;;;3.40;90.79;99885.06;110414;1268;22154;-58
2023/04/12 01:52:49;;;;;;;10.80;2.10;;;;;;;3.40;90.83;99884.77;110327;1266;22217;-59
2023/04/12 01:55:24;;;;;;;13.80;2.90;;;;;;;3.38;90.82;99885.92;110409;1270;22212;-59
2023/04/12 01:57:56;;;;;;;13.60;2.70;;;;;;;3.37;90.82;99882.16;110383;1270;22160;-59
2023/04/12 02:00:27;;;;;;;11.20;2.40;;;;;;;3.38;90.79;99884.89;110396;1272;22135;-59
2023/04/12 02:02:59;;;;;;;11.00;2.50;;;;;;;3.37;90.77;99878.85;110393;1270;22324;-59
2023/04/12 02:05:30;;;;;;;14.90;2.60;;;;;;;3.36;90.76;99880.29;110390;1269;22318;-59
2023/04/12 02:08:02;;;;;;;14.90;2.70;;;;;;;3.35;90.71;99873.78;110414;1269;22162;-58
2023/04/12 02:10:35;;;;;;;12.50;2.60;;;;;;;3.33;90.63;99861.80;110418;1267;22201;-58
2023/04/12 02:13:06;;;;;;;10.10;2.10;;;;;;;3.31;90.70;99861.67;110393;1269;22619;-59
2023/04/12 02:15:37;;;;;;;11.50;2.10;;;;;;;3.29;90.71;99863.30;110336;1268;22336;-59
2023/04/12 02:18:08;;;;;;;13.50;2.80;;;;;;;3.28;90.65;99853.88;110406;1270;22149;-59
2023/04/12 02:20:39;;;;;;;11.50;2.60;;;;;;;3.26;90.58;99858.67;110440;1276;22181;-59
2023/04/12 02:23:10;;;;;;;10.00;2.10;;;;;;;3.23;90.52;99858.05;110363;1265;22811;-59
2023/04/12 02:25:42;;;;;;;15.60;2.40;;;;;;;3.20;90.64;99856.00;110399;1269;22190;-58
2023/04/12 02:28:13;;;;;;;13.30;2.70;;;;;;;3.17;90.68;99854.92;110391;1267;22189;-59
2023/04/12 02:30:45;;;;;;;12.90;2.60;;;;;;;3.16;90.69;99857.85;110401;1266;23241;-59
2023/04/12 02:33:16;;;;;;;13.70;2.80;;;;;;;3.13;90.68;99856.68;110419;1263;22164;-59
2023/04/12 02:35:46;;;;;;;13.50;2.80;;;;;;;3.10;90.70;99857.22;110397;1270;22426;-60
2023/04/12 02:38:17;;;;;;;15.70;2.80;;;;;;;3.08;90.65;99852.26;110357;1265;22176;-59
2023/04/12 02:40:48;;;;;;;12.20;2.80;;;;;;;3.06;90.76;99853.97;110363;1270;22218;-59
2023/04/12 02:43:19;;;;;;;16.10;2.50;;;;;;;3.06;90.86;99851.36;110336;1270;22221;-59
2023/04/12 02:45:50;;;;;;;13.10;2.30;;;;;;;3.06;90.85;99846.89;110344;1269;22922;-60
2023/04/12 02:48:20;;;;;;;13.10;2.60;;;;;;;3.06;90.88;99846.89;110366;1270;22234;-59
2023/04/12 02:50:51;;;;;;;19.00;2.60;;;;;;;3.05;90.85;99849.44;110378;1276;22236;-59
2023/04/12 02:53:22;;;;;;;8.90;2.10;;;;;;;3.03;90.88;99843.11;110376;1274;22903;-59
2023/04/12 02:55:53;;;;;;;9.30;1.90;;;;;;;3.02;90.90;99835.40;110368;1269;22150;-59
2023/04/12 02:58:24;;;;;;;9.00;2.20;;;;;;;3.01;90.97;99830.15;110400;1261;22181;-59
2023/04/12 03:00:58;;;;;;;11.80;2.00;;;;;;;2.99;90.98;99828.57;110318;1270;22354;-58
2023/04/12 03:03:30;;;;;;;11.30;2.30;;;;;;;2.97;90.95;99823.97;110364;1270;22193;-57
2023/04/12 03:06:01;;;;;;;13.50;2.20;;;;;;;2.96;90.91;99822.76;110386;1269;23429;-59
2023/04/12 03:08:33;;;;;;;13.10;2.20;;;;;;;2.93;90.99;99821.39;110390;1270;22426;-59
2023/04/12 03:11:04;;;;;;;10.50;2.10;;;;;;;2.93;90.93;99820.80;110393;1270;22910;-58
2023/04/12 03:13:35;;;;;;;10.10;1.80;;;;;;;2.91;90.94;99822.98;110375;1269;22317;-58
2023/04/12 03:16:22;;;;;;;12.30;2.40;;;;;;;2.90;91.01;99822.54;110346;1265;22967;-59
2023/04/12 03:18:53;;;;;;;13.80;2.40;;;;;;;2.87;91.03;99818.52;110328;1267;22264;-59
2023/04/12 03:21:24;;;;;;;11.00;2.30;;;;;;;2.86;91.05;99818.39;110402;1266;22351;-59
2023/04/12 03:23:55;;;;;;;10.40;2.50;;;;;;;2.84;91.07;99813.33;110349;1270;23049;-59
2023/04/12 03:26:27;;;;;;;13.20;2.30;;;;;;;2.83;91.07;99810.83;110404;1276;22177;-58
2023/04/12 03:29:03;;;;;;;27.90;2.90;;;;;;;2.82;91.05;99817.02;110406;1268;22185;-58
2023/04/12 03:31:34;;;;;;;12.20;3.00;;;;;;;2.79;91.03;99819.61;110372;1269;22825;-59
2023/04/12 03:34:05;;;;;;;12.90;2.60;;;;;;;2.77;90.98;99823.38;110376;1269;23163;-58
2023/04/12 03:36:36;;;;;;;13.00;2.60;;;;;;;2.74;90.98;99824.08;110362;1270;22256;-59
2023/04/12 03:39:07;;;;;;;11.40;2.00;;;;;;;2.72;90.97;99817.11;110357;1270;22130;-59
2023/04/12 03:41:38;;;;;;;12.50;2.30;;;;;;;2.70;91.06;99816.08;110367;1269;22164;-59
2023/04/12 03:44:09;;;;;;;10.00;1.90;;;;;;;2.69;91.07;99824.29;110387;1264;22327;-59
2023/04/12 03:46:40;;;;;;;12.00;2.30;;;;;;;2.68;91.19;99826.85;110391;1267;22212;-58
2023/04/12 03:49:11;;;;;;;12.50;2.30;;;;;;;2.65;91.15;99826.87;110382;1266;22223;-58
2023/04/12 03:51:43;;;;;;;11.30;1.80;;;;;;;2.65;91.14;99833.80;110393;1266;22308;-58
2023/04/12 03:54:14;;;;;;;12.70;2.00;;;;;;;2.66;91.09;99838.09;110405;1268;22880;-59
2023/04/12 03:56:45;;;;;;;10.40;2.00;;;;;;;2.68;91.09;99839.05;110401;1266;23125;-59
2023/04/12 03:59:16;;;;;;;8.90;1.90;;;;;;;2.70;90.96;99840.11;110387;1269;22910;-59
2023/04/12 04:01:46;;;;;;;9.70;2.40;;;;;;;2.70;90.71;99846.70;110369;1264;22130;-59
2023/04/12 04:04:17;;;;;;;12.40;2.70;;;;;;;2.69;90.79;99849.20;107975;1276;22633;-58
2023/04/12 04:06:48;;;;;;;11.00;2.40;;;;;;;2.66;90.81;99848.48;106256;1270;26567;-61
2023/04/12 04:09:19;;;;;;;16.60;3.20;;;;;;;2.64;90.87;99844.50;110393;1270;22301;-58
2023/04/12 04:11:50;;;;;;;18.10;3.60;;;;;;;2.64;90.91;99843.34;110413;1261;22594;-59
2023/04/12 04:14:21;;;;;;;14.10;3.20;;;;;;;2.62;90.90;99843.33;110372;1266;22345;-59
2023/04/12 04:16:52;;;;;;;18.90;2.80;;;;;;;2.62;90.87;99844.58;110369;1267;22356;-58
2023/04/12 04:19:22;;;;;;;18.10;3.70;;;;;;;2.62;90.74;99843.15;110393;1265;22228;-58
2023/04/12 04:21:55;;;;;;;11.80;3.10;;;;;;;2.62;90.71;99838.51;110364;1269;22305;-57
2023/04/12 04:24:26;;;;;;;13.30;3.40;;;;;;;2.62;90.63;99835.04;110375;1269;22361;-57
2023/04/12 04:26:57;;;;;;;17.00;3.50;;;;;;;2.61;90.52;99833.73;110347;1260;22258;-58
2023/04/12 04:29:29;;;;;;;17.20;3.30;;;;;;;2.59;90.47;99837.00;110350;1268;22201;-58
2023/04/12 04:32:00;;;;;;;15.40;3.60;;;;;;;2.59;90.44;99834.73;109844;1269;26672;-58
2023/04/12 04:34:31;;;;;;;17.80;3.40;;;;;;;2.60;90.44;99833.45;106454;1261;24284;-57
2023/04/12 04:37:02;;;;;;;15.10;3.80;;;;;;;2.61;90.41;99835.38;110381;1268;22307;-58
2023/04/12 04:39:33;;;;;;;15.30;3.20;;;;;;;2.63;90.43;99832.27;110372;1267;22387;-57
2023/04/12 04:42:05;;;;;;;21.60;3.50;;;;;;;2.65;90.55;99838.60;110367;1269;22929;-61
2023/04/12 04:44:36;;;;;;;13.20;3.20;;;;;;;2.65;90.44;99843.52;109668;1260;22524;-58
2023/04/12 04:47:07;;;;;;;13.20;3.40;;;;;;;2.66;90.38;99843.13;106692;1270;24192;-61
2023/04/12 04:49:38;;;;;;;16.40;4.10;;;;;;;2.63;90.28;99845.09;106561;1261;24386;-59
2023/04/12 04:52:09;;;;;;;14.70;4.00;;;;;;;2.63;90.39;99840.47;106489;1269;22668;-59
2023/04/12 04:54:40;;;;;;;20.10;5.10;;;;;;;2.64;90.52;99840.11;106493;1257;22530;-60
2023/04/12 04:57:11;;;;;;;18.40;6.20;;;;;;;2.65;90.51;99838.27;106517;1262;25403;-58
2023/04/12 04:59:42;;;;;;;15.10;4.60;;;;;;;2.64;90.61;99841.73;110402;1270;22334;-59
2023/04/12 05:02:13;;;;;;;18.50;4.40;;;;;;;2.66;90.67;99834.85;110403;1269;23141;-61
2023/04/12 05:04:44;;;;;;;17.50;4.80;;;;;;;2.68;90.82;99836.14;110399;1260;22201;-60
2023/04/12 05:07:15;;;;;;;21.00;4.30;;;;;;;2.71;90.84;99840.14;110395;1268;22225;-61
2023/04/12 05:09:45;;;;;;;16.40;4.00;;;;;;;2.75;91.00;99837.77;110400;1266;22277;-60
2023/04/12 05:12:16;;;;;;;17.40;3.60;;;;;;;2.78;91.08;99837.28;110428;1269;22368;-60
2023/04/12 05:14:47;;;;;;;19.10;5.20;;;;;;;2.83;91.33;99831.86;107664;1268;24256;-61
2023/04/12 05:17:18;;;;;;;17.60;4.60;;;;;;;2.88;91.35;99826.30;106574;1269;22853;-56
2023/04/12 05:19:49;;;;;;;21.80;5.80;;;;;;;2.92;91.43;99821.27;109490;1261;25607;-61
2023/04/12 05:22:20;;;;;;;19.70;5.40;;;;;;;2.97;91.63;99824.21;106500;1268;22626;-60
2023/04/12 05:25:11;;;;;;;19.00;5.70;;;;;;;3.02;91.78;99820.66;106492;1261;22549;-61
2023/04/12 05:27:50;;;;;;;17.90;4.20;;;;;;;3.06;91.77;99818.60;110331;1270;22378;-61
2023/04/12 05:30:21;;;;;;;16.40;4.60;;;;;;;3.08;92.04;99814.43;110366;1273;22177;-60
2023/04/12 05:32:52;;;;;;;16.80;4.90;;;;;;;3.11;92.15;99810.77;110370;1276;22223;-61
2023/04/12 05:35:23;;;;;;;16.40;5.20;;;;;;;3.15;92.26;99802.70;110336;1276;22232;-59
2023/04/12 05:37:54;;;;;;;19.10;6.30;;;;;;;3.19;92.12;99804.88;110409;1265;22231;-60
2023/04/12 05:40:25;;;;;;;13.80;4.20;;;;;;;3.23;92.17;99805.79;110365;1270;22161;-61
2023/04/12 05:42:56;;;;;;;14.60;3.00;;;;;;;3.29;92.49;99807.66;110366;1268;22147;-59
2023/04/12 05:45:27;;;;;;;15.30;3.00;;;;;;;3.36;92.54;99809.11;110376;1273;22154;-58
2023/04/12 05:47:58;;;;;;;13.60;3.00;;;;;;;3.42;92.42;99810.35;110421;1269;24166;-59
2023/04/12 05:50:29;;;;;;;15.10;3.60;;;;;;;3.46;92.19;99810.28;110406;1260;22240;-57
2023/04/12 05:53:02;;;;;;;11.90;3.90;;;;;;;3.52;92.11;99812.56;110347;1265;22630;-58
2023/04/12 05:55:33;;;;;;;15.00;4.70;;;;;;;3.57;92.27;99810.35;110402;1268;23001;-58
2023/04/12 05:58:04;;;;;;;13.30;3.60;;;;;;;3.62;92.41;99807.52;108030;1276;22566;-58
2023/04/12 06:00:35;;;;;;;18.10;4.20;;;;;;;3.70;92.53;99808.52;110366;1269;22334;-59
2023/04/12 06:03:06;;;;;;;14.10;2.90;;;;;;;3.77;92.39;99809.64;110425;1260;22153;-58
2023/04/12 06:05:37;;;;;;;13.30;3.10;;;;;;;3.82;92.35;99812.77;110426;1276;22158;-58
2023/04/12 06:08:09;;;;;;;14.80;3.20;;;;;;;3.88;92.27;99815.25;110385;1273;22881;-57
2023/04/12 06:10:41;;;;;;;11.90;2.90;;;;;;;3.94;92.20;99815.29;108628;1268;25430;-58
2023/04/12 06:13:12;;;;;;;13.40;2.90;;;;;;;4.01;92.20;99814.89;106508;1273;22570;-57
2023/04/12 06:15:43;;;;;;;13.40;3.30;;;;;;;4.08;92.25;99813.20;106586;1264;25435;-58
2023/04/12 06:18:14;;;;;;;12.30;3.00;;;;;;;4.16;92.60;99810.48;110338;1268;22159;-58
2023/04/12 06:20:45;;;;;;;17.30;2.90;;;;;;;4.24;92.50;99808.30;107800;1271;3400356;-59
2023/04/12 06:23:18;;;;;;;12.20;2.50;;;;;;;4.30;92.09;99805.33;110379;1261;22182;-57
2023/04/12 06:25:49;;;;;;;10.60;2.60;;;;;;;4.35;91.98;99806.26;110331;1261;23178;-58
2023/04/12 06:28:20;;;;;;;10.90;2.90;;;;;;;4.40;92.14;99803.95;110369;1269;22289;-59
2023/04/12 06:30:51;;;;;;;13.20;2.90;;;;;;;4.48;92.35;99802.08;110328;1270;22218;-58
2023/04/12 06:33:22;;;;;;;14.70;2.60;;;;;;;4.55;92.11;99804.52;110356;1262;22384;-56
2023/04/12 06:35:53;;;;;;;13.50;3.40;;;;;;;4.60;92.06;99800.39;110412;1276;22307;-60
2023/04/12 06:38:23;;;;;;;14.40;3.30;;;;;;;4.67;92.11;99802.23;110368;1276;22184;-60
2023/04/12 06:40:54;;;;;;;16.00;3.00;;;;;;;4.72;91.86;99802.17;110349;1269;22745;-58
2023/04/12 06:43:25;;;;;;;14.50;2.90;;;;;;;4.77;91.96;99796.36;110407;1265;22136;-58
2023/04/12 06:45:57;;;;;;;15.00;3.30;;;;;;;4.85;92.21;99791.29;110410;1268;22157;-57
2023/04/12 06:48:28;;;;;;;13.40;3.00;;;;;;;4.91;91.90;99787.09;110374;1269;22665;-58
2023/04/12 06:50:59;;;;;;;13.00;3.10;;;;;;;4.98;92.01;99787.10;110366;1268;23160;-59
2023/04/12 06:53:30;;;;;;;16.20;4.50;;;;;;;5.04;91.96;99789.57;110392;1273;22221;-59
2023/04/12 06:56:05;;;;;;;15.50;3.30;;;;;;;5.09;92.06;99792.58;110362;1260;22334;-58
2023/04/12 06:58:36;;;;;;;14.40;3.10;;;;;;;5.17;92.14;99792.54;110334;1273;22270;-59
2023/04/12 07:01:08;;;;;;;9.90;2.70;;;;;;;5.24;92.08;99790.35;110365;1269;22278;-57
2023/04/12 07:03:40;;;;;;;12.70;3.40;;;;;;;5.31;91.79;99793.96;110385;1268;22303;-58
2023/04/12 07:06:11;;;;;;;13.00;3.40;;;;;;;5.37;91.62;99794.15;107447;1269;22727;-58
2023/04/12 07:08:42;;;;;;;14.50;3.20;;;;;;;5.41;91.34;99792.27;110357;1276;22185;-57
2023/04/12 07:11:13;;;;;;;13.10;2.80;;;;;;;5.45;91.31;99791.53;110346;1268;22151;-60
2023/04/12 07:13:44;;;;;;;13.50;4.00;;;;;;;5.49;91.41;99783.55;110338;1268;22210;-59
2023/04/12 07:16:14;;;;;;;11.70;2.90;;;;;;;5.53;91.45;99778.77;110363;1268;22142;-58
2023/04/12 07:18:45;;;;;;;14.20;3.40;;;;;;;5.60;91.58;99771.56;110377;1268;22644;-58
2023/04/12 07:21:16;;;;;;;16.30;3.00;;;;;;;5.66;91.51;99769.73;110379;1269;22181;-58
2023/04/12 07:23:50;;;;;;;9.40;2.50;;;;;;;5.72;91.47;99770.80;110369;1269;22319;-58
2023/04/12 07:26:21;;;;;;;14.40;3.80;;;;;;;5.81;91.66;99765.87;110363;1276;22199;-59
2023/04/12 07:28:51;;;;;;;12.70;3.00;;;;;;;5.86;91.38;99771.54;110357;1270;22250;-59
2023/04/12 07:31:23;;;;;;;17.50;3.10;;;;;;;5.90;91.11;99770.05;110344;1276;22176;-58
2023/04/12 07:33:54;;;;;;;10.50;2.80;;;;;;;5.91;91.04;99765.15;110365;1276;22248;-56
2023/04/12 07:36:26;;;;;;;14.00;2.90;;;;;;;5.94;91.04;99760.90;110347;1269;22953;-57
2023/04/12 07:38:56;;;;;;;14.70;2.50;;;;;;;6.01;91.10;99759.14;110358;1269;22884;-58
2023/04/12 07:41:27;;;;;;;10.30;2.80;;;;;;;6.06;91.03;99754.46;110378;1276;22365;-57
2023/04/12 07:43:58;;;;;;;9.20;2.40;;;;;;;6.13;90.77;99754.42;110340;1268;22427;-57
2023/04/12 07:46:29;;;;;;;11.80;2.60;;;;;;;6.20;90.74;99750.00;110393;1268;22459;-57
2023/04/12 07:49:00;;;;;;;10.90;2.80;;;;;;;6.28;90.88;99748.77;110351;1265;22203;-59
2023/04/12 07:51:31;;;;;;;12.90;2.50;;;;;;;6.39;90.98;99747.02;110388;1269;22130;-60
2023/04/12 07:54:02;;;;;;;12.90;2.60;;;;;;;6.49;90.82;99743.51;110350;1269;22363;-60
2023/04/12 07:56:35;;;;;;;9.70;2.30;;;;;;;6.57;90.83;99744.00;110369;1272;23171;-60
2023/04/12 07:59:06;;;;;;;10.00;3.00;;;;;;;6.71;90.94;99741.33;110363;1269;23097;-59
2023/04/12 08:01:37;;;;;;;14.00;2.90;;;;;;;6.82;90.95;99737.88;110354;1268;22239;-60
2023/04/12 08:04:08;;;;;;;10.80;2.00;;;;;;;6.92;90.86;99734.59;110350;1273;22832;-60
2023/04/12 08:06:39;;;;;;;8.90;2.20;;;;;;;7.04;90.47;99735.85;110387;1266;22399;-60
2023/04/12 08:09:10;;;;;;;13.40;2.20;;;;;;;7.13;90.45;99735.09;110343;1269;22241;-59
2023/04/12 08:11:41;;;;;;;7.30;1.70;;;;;;;7.26;90.20;99735.10;110374;1276;22217;-60
2023/04/12 08:14:13;;;;;;;9.60;2.30;;;;;;;7.47;90.42;99740.97;110372;1273;23015;-58
2023/04/12 08:16:43;;;;;;;13.30;2.00;;;;;;;7.61;89.59;99733.13;110396;1271;22186;-60
2023/04/12 08:19:14;;;;;;;7.40;1.60;;;;;;;7.65;88.86;99734.18;110362;1273;22235;-59
2023/04/12 08:21:46;;;;;;;6.90;1.70;;;;;;;7.67;88.32;99733.27;110348;1268;22149;-61
2023/04/12 08:24:17;;;;;;;7.30;1.40;;;;;;;7.69;88.15;99738.52;110337;1261;22194;-59
2023/04/12 08:26:48;;;;;;;7.30;1.10;;;;;;;7.70;87.73;99733.84;110397;1276;22792;-59
2023/04/12 08:29:18;;;;;;;9.80;1.50;;;;;;;7.71;87.55;99731.12;110369;1276;22122;-60
2023/04/12 08:31:50;;;;;;;8.40;1.50;;;;;;;7.74;87.12;99728.83;110413;1261;22187;-59
2023/04/12 08:34:23;;;;;;;6.20;1.40;;;;;;;7.80;87.45;99725.12;110351;1268;22227;-60
2023/04/12 08:36:54;;;;;;;8.10;1.10;;;;;;;7.94;87.68;99721.13;110367;1269;22339;-60
2023/04/12 08:39:25;;;;;;;11.70;1.80;;;;;;;8.10;87.36;99714.50;110396;1264;22304;-60
2023/04/12 08:41:58;;;;;;;7.60;1.60;;;;;;;8.24;87.29;99713.82;110365;1269;22244;-60
2023/04/12 08:44:36;;;;;;;8.50;1.20;;;;;;;8.29;86.50;99713.92;110381;1276;22291;-61
2023/04/12 08:47:09;;;;;;;7.10;1.50;;;;;;;8.38;87.22;99708.44;110378;1268;22183;-61
2023/04/12 08:49:40;;;;;;;11.00;1.90;;;;;;;8.46;86.30;99710.22;110381;1268;22329;-61
2023/04/12 08:52:12;;;;;;;10.60;1.80;;;;;;;8.55;86.14;99712.70;110387;1260;22928;-62
2023/04/12 08:54:43;;;;;;;6.60;1.60;;;;;;;8.65;85.53;99713.80;110394;1268;22194;-61
2023/04/12 08:57:15;;;;;;;11.20;2.50;;;;;;;8.72;85.29;99714.39;110405;1269;22531;-62
2023/04/12 08:59:49;;;;;;;10.00;2.20;;;;;;;8.83;85.57;99708.36;110401;1269;22403;-61
2023/04/12 09:02:20;;;;;;;12.50;2.60;;;;;;;8.96;85.76;99706.64;108859;1257;22552;-60
2023/04/12 09:04:52;;;;;;;15.80;2.80;;;;;;;9.08;85.00;99703.30;110361;1273;23136;-62
2023/04/12 09:07:26;;;;;;;11.00;2.10;;;;;;;9.16;84.67;99701.41;110421;1269;22859;-61
2023/04/12 09:09:58;;;;;;;9.70;2.10;;;;;;;9.24;83.87;99697.23;110412;1268;22171;-62
2023/04/12 09:12:29;;;;;;;10.20;2.40;;;;;;;9.33;84.09;99695.59;110401;1268;22203;-62
2023/04/12 09:15:12;;;;;;;7.60;1.80;;;;;;;9.49;84.16;99692.55;110399;1261;22373;-60
2023/04/12 09:17:44;;;;;;;9.60;2.20;;;;;;;9.70;84.42;99689.91;110465;1269;22196;-61
2023/04/12 09:20:27;;;;;;;7.30;1.60;;;;;;;9.87;83.93;99687.13;110401;1268;22167;-60
2023/04/12 09:22:58;;;;;;;6.70;1.90;;;;;;;9.97;82.73;99690.50;110394;1268;23293;-61
2023/04/12 09:25:44;;;;;;;9.40;1.60;;;;;;;10.03;82.26;99686.21;110385;1272;22137;-62
2023/04/12 09:28:24;;;;;;;6.20;1.40;;;;;;;10.08;81.70;99679.75;110383;1268;22891;-62
2023/04/12 09:30:56;;;;;;;8.40;1.60;;;;;;;10.20;82.03;99679.30;110410;1268;22193;-62
2023/04/12 09:33:47;;;;;;;4.90;1.60;;;;;;;10.30;81.79;99681.30;110434;1268;22300;-62
2023/04/12 09:36:18;;;;;;;7.50;1.50;;;;;;;10.36;81.56;99677.40;110421;1269;22181;-61
2023/04/12 09:39:02;;;;;;;8.70;1.40;;;;;;;10.40;80.48;99673.54;110395;1276;22318;-62
2023/04/12 09:41:33;;;;;;;6.80;1.30;;;;;;;10.38;80.06;99673.11;110399;1273;22169;-62
2023/04/12 09:44:04;;;;;;;7.90;1.00;;;;;;;10.32;79.53;99674.11;110382;1262;23142;-61
2023/04/12 09:46:35;;;;;;;6.20;1.10;;;;;;;10.27;78.78;99669.79;110383;1262;22338;-61
2023/04/12 09:49:06;;;;;;;4.20;0.90;;;;;;;10.22;78.87;99667.05;110403;1273;22150;-62
2023/04/12 09:51:37;;;;;;;5.20;1.10;;;;;;;10.19;77.92;99665.30;110412;1269;23214;-62
2023/04/12 09:54:10;;;;;;;4.50;0.90;;;;;;;10.17;77.47;99658.63;108204;1276;22609;-61
2023/04/12 09:56:43;;;;;;;5.10;1.00;;;;;;;10.15;77.52;99655.00;110388;1276;22257;-62
2023/04/12 09:59:15;;;;;;;4.90;1.00;;;;;;;10.21;77.99;99653.14;110399;1273;22169;-61
2023/04/12 10:01:47;;;;;;;7.00;1.20;;;;;;;10.37;78.64;99652.49;110393;1268;22736;-62
2023/04/12 10:04:19;;;;;;;5.50;1.00;;;;;;;10.52;78.39;99645.61;110380;1268;22229;-62
2023/04/12 10:06:50;;;;;;;7.60;1.20;;;;;;;10.60;78.24;99639.67;110435;1269;22266;-61
2023/04/12 10:09:22;;;;;;;6.20;1.30;;;;;;;10.62;77.43;99634.82;110392;1268;22951;-61
2023/04/12 10:11:52;;;;;;;5.90;1.00;;;;;;;10.58;76.68;99633.33;110390;1276;22164;-61
2023/04/12 10:14:27;;;;;;;7.30;1.50;;;;;;;10.51;76.53;99635.19;110407;1276;22247;-61
2023/04/12 10:16:59;;;;;;;9.70;1.90;;;;;;;10.45;76.43;99626.90;110369;1270;22210;-62
2023/04/12 10:19:32;;;;;;;5.30;1.20;;;;;;;10.41;76.39;99619.22;110387;1273;23259;-61
2023/04/12 10:22:03;;;;;;;4.90;1.70;;;;;;;10.40;75.56;99618.29;110390;1265;22371;-61
2023/04/12 10:24:34;;;;;;;6.00;1.60;;;;;;;10.42;76.07;99615.92;110375;1262;22885;-62
2023/04/12 10:27:07;;;;;;;10.40;1.30;;;;;;;10.52;76.00;99613.17;110401;1269;22363;-61
2023/04/12 10:29:39;;;;;;;8.80;2.00;;;;;;;10.65;75.73;99614.96;110414;1269;22186;-61
2023/04/12 10:32:23;;;;;;;6.20;1.50;;;;;;;10.75;74.83;99610.83;110429;1262;22198;-62
2023/04/12 10:34:56;;;;;;;6.30;1.20;;;;;;;10.86;75.16;99608.73;110386;1269;22157;-62
2023/04/12 10:38:01;;;;;;;8.60;1.30;;;;;;;10.99;75.24;99608.94;110401;1268;22910;-61
2023/04/12 10:40:34;;;;;;;5.80;1.20;;;;;;;11.07;74.18;99605.94;110402;1273;22949;-62
2023/04/12 10:43:27;;;;;;;6.50;1.70;;;;;;;11.11;74.26;99605.41;110400;1268;22169;-61
2023/04/12 10:46:03;;;;;;;8.50;2.00;;;;;;;11.20;74.33;99603.08;110377;1269;22638;-62
2023/04/12 10:48:35;;;;;;;6.70;1.20;;;;;;;11.25;73.69;99602.05;110386;1273;22312;-62
2023/04/12 10:51:24;;;;;;;4.40;1.40;;;;;;;11.24;72.70;99597.73;110429;1269;22313;-62
2023/04/12 10:54:15;;;;;;;5.90;1.40;;;;;;;11.17;72.28;99591.38;110366;1269;22166;-62
2023/04/12 10:56:48;;;;;;;5.10;1.30;;;;;;;11.10;72.19;99589.96;110424;1265;22731;-61
2023/04/12 10:59:20;;;;;;;8.00;1.70;;;;;;;11.03;72.48;99585.71;110368;1273;22902;-62
2023/04/12 11:02:15;;;;;;;6.50;1.10;;;;;;;10.96;72.81;99579.81;110374;1269;23267;-62
2023/04/12 11:05:07;;;;;;;5.20;1.20;;;;;;;10.98;71.91;99576.27;110413;1268;23140;-62
2023/04/12 11:07:43;;;;;;;4.40;0.90;;;;;;;10.99;72.67;99568.55;110432;1265;22231;-61
2023/04/12 11:10:20;;;;;;;5.10;0.80;;;;;;;11.09;72.52;99567.16;110369;1268;22655;-62
2023/04/12 11:12:54;;;;;;;7.60;0.90;;;;;;;11.24;72.28;99564.28;110351;1262;22213;-62
2023/04/12 11:15:27;;;;;;;5.70;1.10;;;;;;;11.33;71.76;99561.80;110379;1268;22321;-61
2023/04/12 11:17:59;;;;;;;3.20;0.80;;;;;;;11.35;70.79;99556.59;110285;1269;22332;-62
2023/04/12 11:20:32;;;;;;;6.60;1.30;;;;;;;11.31;70.72;99551.02;110387;1269;22338;-62
2023/04/12 11:23:04;;;;;;;4.90;1.00;;;;;;;11.28;71.57;99545.33;110379;1265;23124;-61
2023/04/12 11:25:36;;;;;;;8.60;1.10;;;;;;;11.30;70.52;99540.50;110399;1269;22425;-61
2023/04/12 11:28:07;;;;;;;10.20;1.00;;;;;;;11.32;70.82;99539.95;110385;1269;22259;-60
2023/04/12 11:30:48;;;;;;;3.00;0.90;;;;;;;11.36;69.87;99536.01;110440;1269;22211;-62
2023/04/12 11:36:30;;;;;;;3.90;0.70;;;;;;;11.38;69.37;99528.39;102339;1318;546030;-59
2023/04/12 11:39:01;;;;;;;4.70;0.70;;;;;;;11.45;69.97;99526.85;109361;1286;22395;-61
2023/04/12 11:41:33;;;;;;;3.70;0.70;;;;;;;11.50;69.69;99522.09;109508;1286;22986;-60
2023/04/12 11:44:03;;;;;;;4.20;0.80;;;;;;;11.48;69.32;99522.64;109503;1273;22417;-60
2023/04/12 11:46:36;;;;;;;3.90;0.70;;;;;;;11.47;69.28;99520.30;109486;1283;23088;-60
2023/04/12 11:49:09;;;;;;;3.30;0.70;;;;;;;11.47;68.76;99516.80;105349;1283;5452100;-61
2023/04/12 11:51:40;;;;;;;5.90;0.80;;;;;;;11.49;68.62;99509.39;109606;1280;23203;-60
2023/04/12 11:54:12;;;;;;;3.80;0.80;;;;;;;11.55;68.82;99507.16;109592;1280;22921;-60
2023/04/12 11:56:43;;;;;;;5.60;1.00;;;;;;;11.57;68.69;99506.80;109635;1287;23448;-60